Latest Weather Observations for Eildon Fire Tower

IDV60801

Issued at 3:52 pm EDT Monday 19 November 2018 (issued every 10 minutes, with the page automatically refreshed every 10 minutes)

About weather observations | Map of weather stations | Latest weather observations for VIC | Other Formats
Station Details ID: 088164 Name: EILDON FIRE TOWER Lat: -37.21 Lon: 145.84 Height: 637.0 m
Data from the previous 72 hours. | See also: Recent months at Eildon Fire Tower
Date/Time
EDT
Temp
°C
App
Temp
°C
Dew
Point
°C
Rel
Hum
%
Delta-T
°C
Wind Press
QNH
hPa
Press
MSL
hPa
Rain since
9am
mm
Dir  Spd
km/h
Gust
km/h
Spd
kts
Gust
kts
19/03:30pm 25.0 20.3 5.2 28 10.3 NE 19 30 10 16 - - 0.0
19/03:00pm 22.6 17.7 5.1 32 9.0 NE 20 30 11 16 - - 0.0
19/02:30pm 22.7 17.7 4.7 31 9.2 NE 20 30 11 16 - - 0.0
19/02:00pm 23.3 18.7 5.7 32 9.2 NE 19 28 10 15 - - 0.0
19/01:30pm 23.7 19.0 6.0 32 9.3 NE 20 30 11 16 - - 0.0
19/01:00pm 22.5 17.6 5.0 32 9.0 NE 20 30 11 16 - - 0.0
19/12:30pm 24.2 19.0 5.5 30 9.8 NE 22 39 12 21 - - 0.0
19/12:00pm 23.1 17.5 5.5 32 9.1 NE 24 32 13 17 - - 0.0
19/11:30am 22.3 18.5 5.7 34 8.6 NNE 15 28 8 15 - - 0.0
19/11:00am 21.8 17.1 5.3 34 8.5 NE 19 28 10 15 - - 0.0
19/10:30am 19.8 15.2 5.5 39 7.3 NE 19 32 10 17 - - 0.0
19/10:00am 20.4 17.0 7.7 44 6.8 NE 15 24 8 13 - - 0.0
19/09:30am 18.3 15.2 7.4 49 5.7 NE 13 26 7 14 - - 0.0
19/09:00am 17.6 13.8 7.4 51 5.3 NE 17 24 9 13 - - 0.0
19/08:30am 16.0 13.8 7.7 58 4.3 NE 9 13 5 7 - - 0.0
19/08:00am 16.1 13.9 7.8 58 4.3 NE 9 13 5 7 - - 0.0
19/07:30am 15.9 14.2 8.4 61 3.9 NE 7 9 4 5 - - 0.0
19/07:00am 15.1 13.2 7.4 60 3.9 ENE 7 9 4 5 - - 0.0
19/06:30am 14.2 12.2 7.3 63 3.5 ENE 7 9 4 5 - - 0.0
19/06:00am 13.2 10.1 7.4 68 2.9 E 13 15 7 8 - - 0.0
19/05:30am 13.2 10.5 7.4 68 2.9 E 11 15 6 8 - - 0.0
19/05:00am 12.5 10.1 8.8 78 1.9 NE 11 13 6 7 - - 0.0
19/04:30am 13.1 11.0 8.2 72 2.5 NE 9 13 5 7 - - 0.0
19/04:00am 13.6 9.9 7.8 68 3.0 NE 17 22 9 12 - - 0.0
19/03:30am 14.5 10.3 7.3 62 3.7 E 19 22 10 12 - - 0.0
19/03:00am 14.6 10.4 7.4 62 3.7 E 19 22 10 12 - - 0.0
19/02:30am 14.8 11.0 7.4 61 3.8 E 17 19 9 10 - - 0.0
19/02:00am 15.3 11.4 7.3 59 4.1 E 17 20 9 11 - - 0.0
19/01:30am 15.7 11.4 7.2 57 4.3 E 19 22 10 12 - - 0.0
19/01:00am 16.0 11.6 7.2 56 4.5 E 20 24 11 13 - - 0.0
19/12:30am 15.8 12.0 7.6 58 4.2 E 17 20 9 11 - - 0.0
19/12:00am 16.5 12.1 7.4 55 4.7 E 20 26 11 14 - - 0.0
 
Date/Time
EDT
Temp
°C
App
Temp
°C
Dew
Point
°C
Rel
Hum
%
Delta-T
°C
Wind Press
QNH
hPa
Press
MSL
hPa
Rain since
9am
mm
Dir  Spd
km/h
Gust
km/h
Spd
kts
Gust
kts
18/11:30pm 16.8 12.4 7.4 54 4.9 E 20 26 11 14 - - 0.0
18/11:00pm 16.9 13.1 7.5 54 4.9 ESE 17 24 9 13 - - 0.0
18/10:30pm 17.2 12.4 7.3 52 5.1 ESE 22 32 12 17 - - 0.0
18/10:00pm 17.7 12.9 7.4 51 5.4 ESE 22 41 12 22 - - 0.0
18/09:30pm 18.2 12.6 7.0 48 5.8 ESE 26 43 14 23 - - 0.0
18/09:00pm 18.7 13.4 6.9 46 6.1 ESE 24 37 13 20 - - 0.0
18/08:30pm 19.5 14.9 6.3 42 6.8 ESE 20 30 11 16 - - 0.0
18/08:00pm 21.4 18.5 2.6 29 9.1 WNW 7 11 4 6 - - 0.0
18/07:30pm 22.2 19.2 0.7 24 10.1 NNW 6 9 3 5 - - 0.0
18/07:00pm 22.4 19.9 1.4 25 10.1 NE 4 6 2 3 - - 0.0
18/06:30pm 22.7 19.5 2.8 27 9.8 N 9 13 5 7 - - 0.0
18/06:00pm 22.8 19.6 2.8 27 9.9 N 9 19 5 10 - - 0.0
18/05:30pm 23.1 19.9 3.1 27 9.9 NNE 9 17 5 9 - - 0.0
18/05:00pm 23.2 20.0 3.2 27 10.0 NNE 9 17 5 9 - - 0.0
18/04:30pm 24.0 21.0 3.9 27 10.2 NE 9 17 5 9 - - 0.0
18/04:00pm 23.9 20.5 3.8 27 10.2 NNE 11 19 6 10 - - 0.0
18/03:30pm 23.0 19.4 3.0 27 9.9 NNW 11 19 6 10 - - 0.0
18/03:00pm 23.7 21.3 5.1 30 9.6 NNE 7 17 4 9 - - 0.0
18/02:30pm 22.6 20.1 4.6 31 9.2 NE 7 17 4 9 - - 0.0
18/02:00pm 22.6 20.1 4.6 31 9.2 SW 7 17 4 9 - - 0.0
18/01:30pm 21.3 19.1 6.4 38 7.8 W 7 15 4 8 - - 0.0
18/01:00pm 21.6 18.8 7.1 39 7.7 WSW 11 19 6 10 - - 0.0
18/12:30pm 20.5 18.5 6.1 39 7.4 WSW 6 15 3 8 - - 0.0
18/12:00pm 21.2 19.6 6.3 38 7.8 NNE 4 9 2 5 - - 0.0
18/11:30am 19.4 17.2 6.2 42 6.8 N 7 13 4 7 - - 0.0
18/11:00am 18.9 16.6 5.7 42 6.7 NNE 7 15 4 8 - - 0.0
18/10:30am 18.2 14.8 5.8 44 6.3 ENE 13 20 7 11 - - 0.0
18/10:00am 17.3 14.3 4.3 42 6.3 NE 9 15 5 8 - - 0.0
18/09:30am 16.8 14.7 6.6 51 5.2 ENE 7 13 4 7 - - 0.0
18/09:00am 15.5 13.6 6.5 55 4.5 ENE 6 9 3 5 - - 0.0
18/08:30am 13.9 11.7 6.3 60 3.8 ENE 7 11 4 6 - - 0.0
18/08:00am 13.1 10.9 6.0 62 3.5 ENE 7 9 4 5 - - 0.0
18/07:30am 12.3 10.0 5.5 63 3.3 ENE 7 9 4 5 - - 0.0
18/07:00am 12.0 9.1 4.7 61 3.5 E 9 11 5 6 - - 0.0
18/06:30am 11.0 7.6 4.2 63 3.2 ESE 11 13 6 7 - - 0.0
18/06:00am 9.8 6.4 3.8 66 2.7 ESE 11 15 6 8 - - 0.0
18/05:30am 10.4 5.8 3.9 64 3.0 ESE 17 22 9 12 - - 0.0
18/05:00am 10.6 6.1 4.1 64 3.0 E 17 20 9 11 - - 0.0
18/04:30am 10.6 6.5 4.5 66 2.8 ENE 15 22 8 12 - - 0.0
18/04:00am 11.3 5.8 4.1 61 3.3 ESE 22 28 12 15 - - 0.0
18/03:30am 11.3 5.5 4.3 62 3.3 ESE 24 37 13 20 - - 0.0
18/03:00am 11.4 5.2 4.4 62 3.3 E 26 37 14 20 - - 0.0
18/02:30am 11.4 5.3 4.6 63 3.2 ESE 26 43 14 23 - - 0.0
18/02:00am 11.4 5.7 4.8 64 3.1 ESE 24 37 13 20 - - 0.0
18/01:30am 11.5 4.7 4.9 64 3.1 ESE 30 43 16 23 - - 0.0
18/01:00am 11.6 4.8 5.3 65 3.0 ESE 30 43 16 23 - - 0.0
18/12:34am 11.9 4.8 5.3 64 3.2 ESE 32 50 17 27 - - 0.0
18/12:30am 11.8 5.0 5.2 64 3.2 ESE 30 41 16 22 - - 0.0
18/12:00am 12.0 6.8 5.4 64 3.2 ESE 22 37 12 20 - - 0.0
 
Date/Time
EDT
Temp
°C
App
Temp
°C
Dew
Point
°C
Rel
Hum
%
Delta-T
°C
Wind Press
QNH
hPa
Press
MSL
hPa
Rain since
9am
mm
Dir  Spd
km/h
Gust
km/h
Spd
kts
Gust
kts
17/11:30pm 12.4 6.5 5.6 63 3.3 SE 26 41 14 22 - - 0.0
17/11:00pm 12.8 6.1 5.7 62 3.5 SE 30 50 16 27 - - 0.0
17/10:43pm 13.3 7.0 5.7 60 3.7 SE 28 52 15 28 - - 0.0
17/10:30pm 13.5 8.3 5.4 58 3.9 SE 22 41 12 22 - - 0.0
17/10:05pm 13.9 7.1 5.0 55 4.3 SE 30 48 16 26 - - 0.0
17/10:00pm 14.1 8.0 4.9 54 4.4 SE 26 44 14 24 - - 0.0
17/09:30pm 14.4 7.9 4.7 52 4.7 SE 28 41 15 22 - - 0.0
17/09:00pm 14.9 8.3 4.0 48 5.2 SE 28 41 15 22 - - 0.0
17/08:30pm 15.4 9.1 3.5 45 5.6 SE 26 43 14 23 - - 0.0
17/08:14pm 15.8 9.0 2.9 42 6.1 SE 28 46 15 25 - - 0.0
17/08:00pm 16.4 9.9 2.8 40 6.4 SE 26 43 14 23 - - 0.0
17/07:30pm 17.4 11.2 2.2 36 7.1 SE 24 44 13 24 - - 0.0
17/07:00pm 18.0 11.4 1.9 34 7.5 SE 26 39 14 21 - - 0.0
17/06:30pm 19.0 12.7 1.5 31 8.2 SE 24 39 13 21 - - 0.0
17/06:00pm 19.8 14.3 1.7 30 8.5 SE 20 37 11 20 - - 0.0
17/05:30pm 20.3 14.3 1.2 28 9.0 SE 22 35 12 19 - - 0.0
17/05:00pm 21.3 16.4 2.1 28 9.2 SE 17 26 9 14 - - 0.0
17/04:30pm 22.4 18.4 3.0 28 9.6 ESE 13 26 7 14 - - 0.0
17/04:00pm 21.7 19.1 3.4 30 9.1 WNW 6 11 3 6 - - 0.0
17/03:30pm 21.2 17.5 4.7 34 8.3 SW 13 24 7 13 - - 0.0
17/03:00pm 21.4 17.2 3.6 31 8.8 SW 15 26 8 14 - - 0.0
17/02:30pm 20.3 16.6 4.4 35 7.9 SW 13 22 7 12 - - 0.0
17/02:00pm 19.8 16.4 3.9 35 7.8 SW 11 24 6 13 - - 0.0
17/01:30pm 19.3 15.3 2.6 33 8.0 SW 13 22 7 12 - - 0.0
17/01:00pm 19.8 16.9 2.6 32 8.3 S 7 13 4 7 - - 0.0
17/12:30pm 18.1 14.3 2.0 34 7.5 SSW 11 28 6 15 - - 0.0
17/12:00pm 17.6 13.9 2.4 36 7.2 S 11 22 6 12 - - 0.0
17/11:30am 16.3 11.1 0.4 34 7.1 SE 17 28 9 15 - - 0.0
17/11:00am 16.0 12.3 2.1 39 6.4 SSE 11 28 6 15 - - 0.0
17/10:30am 15.4 12.6 2.9 43 5.8 S 7 15 4 8 - - 0.0
17/10:00am 14.3 10.2 2.2 44 5.5 SSE 13 22 7 12 - - 0.0
17/09:30am 12.7 8.2 2.3 49 4.7 SSE 15 28 8 15 - - 0.0
17/09:00am 9.8 6.3 3.3 64 2.9 SW 11 20 6 11 - - 0.0
17/08:30am 8.1 5.3 3.0 70 2.2 WSW 7 11 4 6 - - 0.0
17/08:00am 7.3 3.9 2.0 69 2.3 WSW 9 11 5 6 - - 0.0
17/07:30am 7.2 4.4 2.1 70 2.2 SW 6 9 3 5 - - 0.0
17/07:00am 6.3 3.5 2.2 75 1.7 S 6 9 3 5 - - 0.0
17/06:30am 6.4 4.0 1.9 73 1.9 SSW 4 9 2 5 - - 0.0
17/06:00am 5.2 2.3 2.7 84 1.1 WSW 7 9 4 5 - - 0.0
17/05:30am 6.2 3.8 2.1 75 1.7 S 4 7 2 4 - - 0.0
17/05:00am 5.4 2.2 3.3 86 0.9 WSW 9 11 5 6 - - 0.0
17/04:30am 5.5 1.8 4.2 91 0.6 WSW 13 15 7 8 - - 0.0
17/04:00am 5.7 3.1 4.3 91 0.6 WSW 7 11 4 6 - - 0.0
17/03:30am 6.1 3.6 4.6 90 0.7 WSW 7 9 4 5 - - 0.0
17/03:00am 6.2 2.5 4.7 90 0.7 SW 13 15 7 8 - - 0.0
17/02:30am 6.5 2.8 4.7 88 0.8 WSW 13 15 7 8 - - 0.0
17/02:00am 6.9 3.2 4.6 85 1.0 SW 13 19 7 10 - - 0.0
17/01:30am 7.5 5.9 4.6 82 1.3 SW 2 4 1 2 - - 0.0
17/01:00am 7.7 5.2 4.7 81 1.4 WSW 7 11 4 6 - - 0.0
17/12:30am 8.2 4.9 4.6 78 1.6 W 11 15 6 8 - - 0.0
17/12:00am 8.9 6.5 4.5 74 2.0 SSW 6 9 3 5 - - 0.0
 
Date/Time
EDT
Temp
°C
App
Temp
°C
Dew
Point
°C
Rel
Hum
%
Delta-T
°C
Wind Press
QNH
hPa
Press
MSL
hPa
Rain since
9am
mm
Dir  Spd
km/h
Gust
km/h
Spd
kts
Gust
kts
16/11:30pm 9.6 7.3 4.6 71 2.3 NW 6 9 3 5 - - 0.0
16/11:00pm 10.1 8.2 4.9 70 2.4 NW 4 7 2 4 - - 0.0
16/10:30pm 10.9 9.0 5.0 67 2.8 S 4 7 2 4 - - 0.0
16/10:00pm 11.3 7.3 4.7 64 3.1 WSW 15 19 8 10 - - 0.0
16/09:30pm 12.3 7.5 4.8 60 3.6 WSW 19 26 10 14 - - 0.0
16/09:00pm 12.9 7.5 4.6 57 3.9 WSW 22 28 12 15 - - 0.0
16/08:30pm 13.5 7.2 3.8 52 4.6 WSW 26 39 14 21 - - 0.0
16/08:00pm 14.3 7.2 3.7 49 5.0 WSW 30 43 16 23 - - 0.0
16/07:30pm 15.5 8.2 4.6 48 5.3 WSW 32 44 17 24 - - 0.0
16/07:00pm 16.8 8.9 2.0 37 6.9 WSW 33 46 18 25 - - 0.0
16/06:30pm 18.1 10.1 0.3 30 8.1 WSW 32 41 17 22 - - 0.0
16/06:00pm 19.0 12.9 4.7 39 7.1 WSW 26 37 14 20 - - 0.0
16/05:30pm 20.2 15.6 6.5 41 7.1 WSW 20 32 11 17 - - 0.0
16/05:00pm 21.4 16.9 6.1 37 7.9 WSW 19 30 10 16 - - 0.0
16/04:30pm 21.0 15.5 1.8 28 9.2 W 20 32 11 17 - - 0.0
16/04:00pm 21.5 16.5 3.7 31 8.8 WSW 19 32 10 17 - - 0.0

Other Formats:

Comma delimited format used in spreadsheet applications
http://www.bom.gov.au/fwo/IDV60801/IDV60801.94881.axf

JavaScript Object Notation format (JSON) in row-major order
http://www.bom.gov.au/fwo/IDV60801/IDV60801.94881.json